• Join FlightAware (Why Join?)
  • Login
  • US Flag 
11:23PM EDT


 

Airport Tracker/Info


-or-


 

Live Flight TrackerFlight Track Log ✈ UPS32 ✈ 01-May-2013 ✈ KSDF - PHNL

Flight Track Log - Related Links

Times and Time Zones

All times are in EDT time to prevent confusion due to time zone crossing. See the UPS32 flight status page for this flight to view local times or setup timezone preferences in your user account.

Time Position Orientation Groundspeed Altitude Reporting Facility
EDT Latitude Longitude Course Direction KTS MPH feet Rate Location/Type
03:50AM 38.1440 -85.7350 163° South 193 222 1,300  Level FlightAware
03:50AM 38.1200 -85.7380 186° South 216 249 2,000 1,380 Climbing FlightAware
03:51AM 38.0880 -85.7430 187° South 253 291 2,600 1,320 Climbing FlightAware
03:51AM 38.0720 -85.7520 204° Southwest 267 307 3,000 2,400 Climbing FlightAware
03:51AM 38.0580 -85.7710 227° Southwest 275 316 3,800 2,820 Climbing FlightAware
03:51AM 38.0450 -85.8070 245° Southwest 281 323 4,900 2,820 Climbing FlightAware
03:52AM 38.0300 -85.8530 248° West 281 323 6,400 2,700 Climbing FlightAware
03:52AM 38.0170 -85.8910 247° West 290 334 7,400 1,920 Climbing FlightAware
03:53AM 38.0000 -85.9380 245° Southwest 313 360 8,200 1,860 Climbing FlightAware
03:53AM 37.9820 -85.9920 247° West 325 374 9,300 2,100 Climbing FlightAware
03:54AM 37.9580 -86.0630 247° West 342 394 10,700 1,680 Climbing FlightAware
03:55AM 37.9300 -86.1420 246° West 377 434 11,600 1,260 Climbing FlightAware
03:55AM 37.9020 -86.2320 249° West 411 473 12,500 900 Climbing FlightAware
03:56AM 37.8940 -86.3630 266° West 427 491 13,100 360 Climbing FlightAware
03:57AM 37.8920 -86.4480 268° West 427 491 13,100  Level FlightAware
03:58AM 37.8890 -86.5330 267° West 427 491 13,100 3,300 Level FlightAware
03:59AM 37.9600 -86.7450 293° West 466 536 18,600 4,200 Climbing FlightAware
03:59AM 37.9760 -86.8520 281° West 466 536 20,100 1,320 Climbing FlightAware
04:00AM 37.9900 -86.9500 280° West 467 537 20,400 180 Climbing FlightAware
04:01AM 38.0030 -87.0420 280° West 467 537 20,400 1,800 Level FlightAware
04:02AM 38.0290 -87.2130 281° West 488 562 23,100 2,400 Climbing FlightAware
04:02AM 38.0460 -87.3260 281° West 493 567 24,000 1,320 Climbing FlightAware
04:03AM 38.0640 -87.4520 280° West 498 573 25,000 1,380 Climbing FlightAware
04:04AM 38.0800 -87.5670 280° West 498 573 26,000 1,500 Climbing FlightAware
04:04AM 38.0970 -87.6850 280° West 498 573 27,000 1,200 Climbing FlightAware
04:05AM 38.1150 -87.8120 280° West 505 581 27,700 840 Climbing FlightAware
04:06AM 38.1310 -87.9270 280° West 513 590 28,200 1,020 Climbing FlightAware
04:06AM 38.1500 -88.0670 280° West 515 593 29,200 1,260 Climbing FlightAware
04:07AM 38.1650 -88.1800 280° West 515 593 30,000 600 Climbing FlightAware
04:08AM 38.1810 -88.3020 280° West 511 588 30,000  Level FlightAware
04:09AM 38.1990 -88.4350 280° West 511 588 30,000  Level FlightAware
04:09AM 38.2150 -88.5500 280° West 510 587 30,000  Level FlightAware
04:10AM 38.2330 -88.6900 279° West 511 588 30,000  Level FlightAware
04:11AM 38.2480 -88.8020 280° West 512 589 30,000  Level FlightAware
04:11AM 38.2640 -88.9250 279° West 514 592 30,000  Level FlightAware
04:12AM 38.2810 -89.0590 279° West 515 593 30,000  Level FlightAware
04:13AM 38.2950 -89.1670 279° West 515 593 30,000  Level FlightAware
04:13AM 38.2910 -89.2720 267° West 514 592 30,000  Level FlightAware
04:14AM 38.2870 -89.3960 268° West 512 589 30,000  Level FlightAware
04:15AM 38.2810 -89.5510 267° West 508 585 30,000  Level FlightAware
04:15AM 38.2770 -89.6410 267° West 507 583 30,000  Level FlightAware
04:16AM 38.2720 -89.7600 267° West 507 583 30,000  Level FlightAware
04:17AM 38.2660 -89.8940 267° West 506 582 30,000  Level FlightAware
04:17AM 38.2610 -90.0130 267° West 507 583 30,000  Level FlightAware
04:18AM 38.2570 -90.1170 267° West 509 586 30,000  Level FlightAware
04:19AM 38.2500 -90.2490 266° West 511 588 30,000 60 Level FlightAware
04:19AM 38.2440 -90.3840 267° West 513 590 30,100 60 Climbing FlightAware
04:20AM 38.2380 -90.5080 267° West 516 594 30,100  Level FlightAware
04:21AM 38.2310 -90.6480 266° West 517 595 30,100  Level FlightAware
04:22AM 38.2250 -90.7700 266° West 517 595 30,100 -120 Level FlightAware
04:22AM 38.2180 -90.9090 266° West 517 595 30,000 -120 Descending FlightAware
04:23AM 38.2110 -91.0270 266° West 516 594 30,000  Level FlightAware
04:24AM 38.2060 -91.1340 267° West 516 594 30,000  Level FlightAware
04:24AM 38.2000 -91.2370 266° West 516 594 30,000  Level FlightAware
04:25AM 38.1940 -91.3400 266° West 516 594 30,000  Level FlightAware
04:26AM 38.1890 -91.4430 266° West 516 594 30,000  Level FlightAware
04:26AM 38.1810 -91.5720 266° West 516 594 30,000  Level FlightAware
04:27AM 38.1760 -91.6750 266° West 516 594 30,000  Level FlightAware
04:28AM 38.1700 -91.7780 266° West 516 594 30,000  Level FlightAware
04:29AM 38.1630 -91.9070 266° West 516 594 30,000  Level FlightAware
04:29AM 38.1570 -92.0100 266° West 516 594 30,000  Level FlightAware
04:30AM 38.1520 -92.1130 266° West 516 594 30,000  Level FlightAware
04:31AM 38.1460 -92.2160 266° West 516 594 30,000 1,380 Level FlightAware
04:31AM 38.1220 -92.5160 264° West 508 585 32,000 1,500 Climbing FlightAware
04:32AM 38.1160 -92.6090 265° West 508 585 32,000  Level FlightAware
04:33AM 38.1070 -92.7360 265° West 508 585 32,000  Level FlightAware
04:33AM 38.1000 -92.8370 265° West 508 585 32,000  Level FlightAware
04:34AM 38.0930 -92.9380 265° West 508 585 32,000  Level FlightAware
04:35AM 38.0860 -93.0390 265° West 508 585 32,000  Level FlightAware
04:36AM 38.0770 -93.1660 265° West 508 585 32,000  Level FlightAware
04:36AM 38.0700 -93.2670 265° West 508 585 32,000  Level FlightAware
04:37AM 38.0630 -93.3680 265° West 508 585 32,000  Level FlightAware
04:38AM 38.0560 -93.4690 265° West 508 585 32,000  Level FlightAware
04:38AM 38.0490 -93.5700 265° West 508 585 32,000  Level FlightAware
04:39AM 38.0420 -93.6710 265° West 508 585 32,000  Level FlightAware
04:40AM 38.0340 -93.7970 265° West 508 585 32,000  Level FlightAware
04:40AM 38.0050 -94.1110 263° West 498 573 32,000  Level FlightAware
04:41AM 37.9950 -94.2360 264° West 496 571 32,000  Level FlightAware
04:42AM 37.9850 -94.3600 264° West 495 570 32,000  Level FlightAware
04:43AM 37.9760 -94.4690 264° West 493 567 32,000  Level FlightAware
04:43AM 37.9660 -94.5950 264° West 492 566 32,000  Level FlightAware
04:44AM 37.9560 -94.7130 264° West 491 565 32,000  Level FlightAware
04:45AM 37.9460 -94.8300 264° West 489 563 32,000  Level FlightAware
04:45AM 37.9360 -94.9410 264° West 488 562 32,000  Level FlightAware
04:46AM 37.9240 -95.0830 264° West 487 560 32,000  Level FlightAware
04:47AM 37.9100 -95.2200 263° West 487 560 32,000  Level FlightAware
04:48AM 37.9010 -95.3160 263° West 487 560 32,000  Level FlightAware
04:48AM 37.8920 -95.4130 263° West 487 560 32,000  Level FlightAware
04:49AM 37.8820 -95.5090 263° West 487 560 32,000  Level FlightAware
04:50AM 37.8730 -95.6050 263° West 487 560 32,000  Level FlightAware
04:51AM 37.8610 -95.7260 263° West 487 560 32,000  Level FlightAware
04:51AM 37.8520 -95.8220 263° West 487 560 32,000  Level FlightAware
04:52AM 37.8420 -95.9180 263° West 487 560 32,000  Level FlightAware
04:53AM 37.8330 -96.0150 263° West 487 560 32,000  Level FlightAware
04:53AM 37.8240 -96.1110 263° West 487 560 32,000  Level FlightAware
04:54AM 37.8120 -96.2310 263° West 487 560 32,000  Level FlightAware
04:55AM 37.7850 -96.5380 264° West 485 558 32,000 60 Level FlightAware
04:56AM 37.7710 -96.6830 263° West 484 557 32,100  Climbing FlightAware
04:56AM 37.7590 -96.7930 262° West 484 557 32,000 -120 Descending FlightAware
04:57AM 37.7480 -96.9050 263° West 483 556 32,000  Level FlightAware
04:58AM 37.7350 -97.0270 262° West 482 555 32,000  Level FlightAware
04:58AM 37.7200 -97.1640 262° West 480 552 32,000  Level FlightAware
04:59AM 37.7090 -97.2740 263° West 479 551 32,000  Level FlightAware
05:00AM 37.6910 -97.4400 262° West 477 549 32,000  Level FlightAware
05:01AM 37.6790 -97.5500 262° West 476 548 32,000  Level FlightAware
05:02AM 37.6620 -97.7030 262° West 474 545 32,000  Level FlightAware
05:03AM 37.6450 -97.8500 262° West 472 543 32,000  Level FlightAware
05:03AM 37.6330 -97.9610 262° West 471 542 32,000  Level FlightAware
05:04AM 37.6190 -98.0780 261° West 471 542 32,000  Level FlightAware
05:05AM 37.6050 -98.2030 262° West 471 542 32,000  Level FlightAware
05:05AM 37.5920 -98.3140 262° West 473 544 32,000  Level FlightAware
05:06AM 37.5810 -98.4040 261° West 474 545 32,000  Level FlightAware
05:07AM 37.5710 -98.4980 262° West 474 545 32,000 60 Level FlightAware
05:07AM 37.5540 -98.6320 261° West 477 549 32,100 60 Climbing FlightAware
05:08AM 37.5390 -98.7630 262° West 477 549 32,100  Level FlightAware
05:09AM 37.5290 -98.8570 262° West 477 549 32,100  Level FlightAware
05:10AM 37.5180 -98.9500 262° West 477 549 32,100  Level FlightAware
05:10AM 37.5080 -99.0440 262° West 477 549 32,100  Level FlightAware
05:11AM 37.4970 -99.1380 262° West 477 549 32,100  Level FlightAware
05:12AM 37.4840 -99.2550 262° West 477 549 32,100  Level FlightAware
05:12AM 37.4740 -99.3480 262° West 477 549 32,100  Level FlightAware
05:13AM 37.4640 -99.4420 262° West 477 549 32,100  Level FlightAware
05:14AM 37.4530 -99.5360 262° West 477 549 32,100  Level FlightAware
05:14AM 37.4430 -99.6290 262° West 477 549 32,100  Level FlightAware
05:15AM 37.4320 -99.7230 262° West 477 549 32,100  Level FlightAware
05:16AM 37.4190 -99.8400 262° West 477 549 32,100  Level FlightAware
05:17AM 37.4090 -99.9330 262° West 477 549 32,100  Level FlightAware
05:17AM 37.3980 -100.0270 262° West 477 549 32,100 -60 Level FlightAware
05:18AM 37.3269 -100.4067 262° West 470 541 32,000 -60 Descending Kansas City Center
05:19AM 37.3031 -100.5875 261° West 468 539 32,000  Level Kansas City Center
05:20AM 37.2817 -100.7411 260° West 465 535 32,000  Level Kansas City Center
05:21AM 37.2600 -100.8947 260° West 464 534 32,000  Level Kansas City Center
05:22AM 37.2392 -101.0469 260° West 462 532 32,000  Level Kansas City Center
05:23AM 37.2139 -101.2242 260° West 460 529 32,000  Level Kansas City Center
05:24AM 37.1925 -101.3758 260° West 461 531 32,000  Level Kansas City Center
05:26AM 37.1694 -101.5292 259° West 464 534 32,000  Level Kansas City Center
05:27AM 37.1433 -101.7072 260° West 464 534 32,100  Climbing Kansas City Center
05:28AM 37.1217 -101.8597 260° West 464 534 32,100 -60 Level Kansas City Center
05:28AM 37.0989 -102.0139 260° West 466 536 32,000 -60 Descending Albuquerque Center
05:29AM 37.0758 -102.1650 259° West 463 533 32,000  Level Albuquerque Center
05:30AM 37.0533 -102.3161 259° West 462 532 32,000  Level Albuquerque Center
05:31AM 37.0311 -102.4642 259° West 455 524 32,000  Level Albuquerque Center
05:32AM 37.0067 -102.6167 259° West 452 520 32,000  Level Albuquerque Center
05:33AM 36.9808 -102.7881 259° West 449 517 32,000  Level Albuquerque Center
05:34AM 36.9569 -102.9364 259° West 453 521 32,000  Level Albuquerque Center
05:35AM 36.9336 -103.0839 259° West 452 520 32,100  Climbing Albuquerque Center
05:36AM 36.9056 -103.2594 259° West 458 527 32,100  Level Albuquerque Center
05:37AM 36.8811 -103.4078 258° West 457 526 32,100 -60 Level Albuquerque Center
05:38AM 36.8572 -103.5581 259° West 457 526 32,000 -60 Descending Albuquerque Center
05:39AM 36.8331 -103.7056 258° West 455 524 32,000  Level Albuquerque Center
05:40AM 36.8042 -103.8772 258° West 451 519 32,000  Level Albuquerque Center
05:41AM 36.7794 -104.0242 258° West 451 519 32,000  Level Albuquerque Center
05:42AM 36.7550 -104.1719 258° West 452 520 32,000  Level Albuquerque Center
05:44AM 36.7297 -104.3206 258° West 454 522 32,100  Climbing Albuquerque Center
05:45AM 36.6992 -104.4947 258° West 458 527 32,000  Descending Albuquerque Center
05:46AM 36.6736 -104.6378 257° West 458 527 32,100  Climbing Albuquerque Center
05:47AM 36.6467 -104.7967 258° West 463 533 32,000 -60 Descending Albuquerque Center
05:48AM 36.6197 -104.9508 258° West 458 527 32,000  Level Albuquerque Center
05:49AM 36.5925 -105.1058 258° West 457 526 32,100  Climbing Albuquerque Center
05:50AM 36.5636 -105.2636 257° West 460 529 32,000 -60 Descending Albuquerque Center
05:51AM 36.5372 -105.4128 258° West 460 529 32,000  Level Albuquerque Center
05:52AM 36.5078 -105.5692 257° West 461 531 32,000  Level Albuquerque Center
05:53AM 36.4806 -105.7203 257° West 453 521 32,000  Level Albuquerque Center
05:54AM 36.4514 -105.8778 257° West 446 513 32,000  Level Albuquerque Center
05:59AM 36.2960 -106.7020 257° West 450 518 32,000  Level FlightAware
06:00AM 36.2760 -106.7980 256° West 450 518 32,000  Level FlightAware
06:00AM 36.2590 -106.8830 256° West 450 518 32,000  Level FlightAware
06:01AM 36.2420 -106.9680 256° West 450 518 32,000  Level FlightAware
06:02AM 36.2250 -107.0530 256° West 450 518 32,000  Level FlightAware
06:03AM 36.1880 -107.2510 257° West 441 507 32,000  Level FlightAware
06:04AM 36.1660 -107.3590 256° West 442 509 32,000  Level FlightAware
06:04AM 36.1470 -107.4600 257° West 444 511 32,000  Level FlightAware
06:05AM 36.1270 -107.5590 256° West 445 512 32,000  Level FlightAware
06:06AM 36.1050 -107.6680 256° West 446 513 32,000  Level FlightAware
06:06AM 36.0850 -107.7670 256° West 446 513 32,000  Level FlightAware
06:07AM 36.0650 -107.8660 256° West 446 513 32,000  Level FlightAware
06:08AM 36.0420 -107.9770 256° West 447 514 32,000  Level FlightAware
06:08AM 36.0220 -108.0760 256° West 447 514 32,000  Level FlightAware
06:09AM 35.9930 -108.2130 255° West 447 514 32,000  Level FlightAware
06:10AM 35.9740 -108.2970 254° West 447 514 32,000  Level FlightAware
06:11AM 35.9560 -108.3810 255° West 447 514 32,000  Level FlightAware
06:11AM 35.9380 -108.4650 255° West 447 514 32,000  Level FlightAware
06:12AM 35.9200 -108.5490 255° West 447 514 32,000  Level FlightAware
06:13AM 35.9020 -108.6330 255° West 447 514 32,000  Level FlightAware
06:14AM 35.8790 -108.7370 255° West 447 514 32,000  Level FlightAware
06:14AM 35.8610 -108.8210 255° West 447 514 32,000  Level FlightAware
06:15AM 35.8420 -108.9050 254° West 447 514 32,000  Level FlightAware
06:16AM 35.8200 -109.0100 256° West 447 514 32,000  Level FlightAware
06:16AM 35.8010 -109.0930 254° West 447 514 32,000  Level FlightAware
06:17AM 35.7830 -109.1770 255° West 447 514 32,000  Level FlightAware
06:18AM 35.7650 -109.2610 255° West 447 514 32,000  Level FlightAware
06:18AM 35.7470 -109.3440 255° West 447 514 32,000  Level FlightAware
06:19AM 35.7000 -109.5814 255° West 447 514 32,000  Level Albuquerque Center
06:20AM 35.6631 -109.7481 255° West 448 516 32,000  Level Albuquerque Center
06:21AM 35.6306 -109.8897 254° West 448 516 32,000  Level Albuquerque Center
06:22AM 35.5972 -110.0306 254° West 449 517 32,000  Level Albuquerque Center
06:23AM 35.5658 -110.1742 255° West 454 522 32,100  Climbing Albuquerque Center
06:28AM 35.3810 -110.9920 255° West 448 516 32,000 -60 Descending FlightAware
06:29AM 35.3580 -111.0920 254° West 448 516 32,000  Level FlightAware
06:30AM 35.3240 -111.2340 254° West 451 519 32,000  Level FlightAware
06:31AM 35.2980 -111.3380 253° West 451 519 32,000  Level FlightAware
06:31AM 35.2780 -111.4300 255° West 457 526 32,000  Level FlightAware
06:32AM 35.2510 -111.5450 254° West 458 527 32,000  Level FlightAware
06:33AM 35.2270 -111.6450 254° West 461 531 32,000  Level FlightAware
06:34AM 35.1970 -111.7700 254° West 463 533 32,000 60 Level FlightAware
06:34AM 35.1630 -111.9080 253° West 464 534 32,100 60 Climbing FlightAware
06:35AM 35.1400 -112.0040 254° West 465 535 32,100  Level FlightAware
06:36AM 35.1150 -112.1070 254° West 466 536 32,100 -60 Level FlightAware
06:37AM 35.0770 -112.2630 253° West 463 533 32,000 -120 Descending FlightAware
06:37AM 35.0560 -112.3480 253° West 462 532 32,000  Level FlightAware
06:38AM 35.0270 -112.4630 253° West 460 529 32,000  Level FlightAware
06:39AM 34.9910 -112.6110 254° West 459 528 32,000  Level FlightAware
06:40AM 34.9620 -112.7250 253° West 458 527 32,000  Level FlightAware
06:40AM 34.9370 -112.8240 253° West 458 527 32,000  Level FlightAware
06:41AM 34.9130 -112.9200 253° West 456 525 32,000  Level FlightAware
06:42AM 34.8840 -113.0330 253° West 457 526 32,000  Level FlightAware
06:42AM 34.8600 -113.1320 254° West 458 527 32,000  Level FlightAware
06:43AM 34.8310 -113.2430 252° West 461 531 32,000 60 Level FlightAware
06:44AM 34.8060 -113.3420 253° West 462 532 32,100 60 Climbing FlightAware
06:44AM 34.7860 -113.4400 256° West 459 528 32,100 -120 Level FlightAware
06:45AM 34.7740 -113.5580 263° West 460 529 32,000 -120 Descending FlightAware
06:46AM 34.7640 -113.6580 263° West 461 531 32,000  Level FlightAware
06:47AM 34.7510 -113.7770 262° West 464 534 32,000  Level FlightAware
06:47AM 34.7410 -113.8750 263° West 462 532 32,000  Level FlightAware
06:48AM 34.7300 -113.9760 262° West 461 531 32,000  Level FlightAware
06:49AM 34.7170 -114.0960 263° West 461 531 32,000  Level FlightAware
06:49AM 34.7060 -114.1990 263° West 460 529 32,000  Level FlightAware
06:50AM 34.6930 -114.3140 262° West 461 531 32,000  Level FlightAware
06:51AM 34.6820 -114.4150 262° West 463 533 32,000  Level FlightAware
06:51AM 34.6700 -114.5210 262° West 464 534 32,000  Level FlightAware
06:52AM 34.6570 -114.6370 262° West 465 535 32,000  Level FlightAware
06:53AM 34.6470 -114.7300 263° West 466 536 32,000  Level FlightAware
06:54AM 34.6340 -114.8460 262° West 467 537 32,000  Level FlightAware
06:54AM 34.6200 -114.9610 262° West 468 539 32,000 60 Level FlightAware
06:55AM 34.6060 -115.0870 262° West 470 541 32,100 60 Climbing FlightAware
06:56AM 34.5910 -115.2140 262° West 471 542 32,100  Level FlightAware
06:57AM 34.5770 -115.3270 261° West 470 541 32,100 -120 Level FlightAware
06:57AM 34.5650 -115.4290 262° West 469 540 32,000 -120 Descending FlightAware
06:58AM 34.5500 -115.5510 262° West 467 537 32,000  Level FlightAware
06:59AM 34.5370 -115.6570 262° West 467 537 32,000  Level FlightAware
06:59AM 34.5250 -115.7610 262° West 466 536 32,000  Level FlightAware
07:00AM 34.5100 -115.8740 261° West 464 534 32,000  Level FlightAware
07:01AM 34.4980 -115.9770 262° West 466 536 32,000  Level FlightAware
07:02AM 34.4800 -116.1180 261° West 472 543 32,000 60 Level FlightAware
07:02AM 34.4650 -116.2380 261° West 476 548 32,100 60 Climbing FlightAware
07:03AM 34.4530 -116.3360 262° West 477 549 32,100  Level FlightAware
07:04AM 34.4380 -116.4440 260° West 477 549 32,100 -120 Level FlightAware
07:05AM 34.4220 -116.5680 261° West 476 548 32,000 -120 Descending FlightAware
07:05AM 34.4090 -116.6740 262° West 477 549 32,000  Level FlightAware
07:06AM 34.3970 -116.7630 261° West 476 548 32,000  Level FlightAware
07:07AM 34.3800 -116.8920 261° West 477 549 32,000  Level FlightAware
07:07AM 34.3630 -117.0160 261° West 477 549 32,000  Level FlightAware
07:08AM 34.3490 -117.1220 261° West 481 554 32,000 60 Level FlightAware
07:09AM 34.3330 -117.2390 261° West 483 556 32,100 60 Climbing FlightAware
07:09AM 34.3190 -117.3460 261° West 484 557 32,100  Level FlightAware
07:10AM 34.3040 -117.4550 261° West 485 558 32,100  Level FlightAware
07:11AM 34.2870 -117.5760 260° West 485 558 32,100 -120 Level FlightAware
07:12AM 34.2720 -117.6830 260° West 485 558 32,000 -120 Descending FlightAware
07:12AM 34.2550 -117.8030 260° West 486 559 32,000  Level FlightAware
07:13AM 34.2400 -117.9100 260° West 485 558 32,000  Level FlightAware
07:14AM 34.2250 -118.0170 260° West 485 558 32,000  Level FlightAware
07:14AM 34.2080 -118.1350 260° West 484 557 32,000  Level FlightAware
07:15AM 34.1930 -118.2440 261° West 485 558 32,000  Level FlightAware
07:16AM 34.1750 -118.3640 260° West 485 558 32,000  Level FlightAware
07:16AM 34.1600 -118.4700 260° West 484 557 32,000  Level FlightAware
07:17AM 34.1440 -118.5770 260° West 484 557 32,000  Level FlightAware
07:18AM 34.1270 -118.6940 260° West 484 557 32,000  Level FlightAware
07:19AM 34.1110 -118.8000 260° West 484 557 32,000  Level FlightAware
07:19AM 34.0920 -118.9250 260° West 485 558 32,000  Level FlightAware
07:20AM 34.0760 -119.0290 260° West 486 559 32,000  Level FlightAware
07:21AM 34.0600 -119.1360 260° West 487 560 32,000  Level FlightAware
07:21AM 34.0420 -119.2530 260° West 487 560 32,000  Level FlightAware
07:22AM 34.0260 -119.3600 260° West 488 562 32,000  Level FlightAware
07:23AM 34.0070 -119.4830 259° West 489 563 32,000  Level FlightAware
07:23AM 33.9940 -119.5660 259° West 490 564 32,000  Level FlightAware
07:24AM 33.9730 -119.6980 259° West 490 564 32,000  Level FlightAware
07:25AM 33.9550 -119.8160 260° West 491 565 32,000  Level FlightAware
07:26AM 33.9370 -119.9260 259° West 491 565 32,000  Level FlightAware
07:27AM 33.9000 -120.1580 259° West 492 566 32,000  Level FlightAware
07:28AM 33.8700 -120.3440 259° West 495 570 32,000  Level FlightAware
07:29AM 33.8400 -120.5280 259° West 497 572 32,100  Climbing FlightAware
07:30AM 33.8070 -120.7240 259° West 498 573 32,000 -60 Descending FlightAware
07:32AM 33.7760 -120.9090 259° West 498 573 32,000  Level FlightAware
07:33AM 33.7530 -121.0470 259° West 499 574 32,000  Level FlightAware
07:33AM 33.7260 -121.2050 258° West 499 574 32,000  Level FlightAware
07:34AM 33.7100 -121.2970 258° West 499 574 32,000  Level FlightAware
07:35AM 33.6940 -121.3900 258° West 499 574 32,000  Level FlightAware
07:36AM 33.6730 -121.5050 258° West 499 574 32,000  Level FlightAware
07:36AM 33.6570 -121.5970 258° West 499 574 32,000  Level FlightAware
07:37AM 33.6410 -121.6890 258° West 499 574 32,000  Level FlightAware
07:38AM 33.6240 -121.7820 258° West 499 574 32,000  Level FlightAware
07:38AM 33.6080 -121.8740 258° West 499 574 32,000  Level FlightAware
07:39AM 33.5880 -121.9890 258° West 499 574 32,000  Level FlightAware
07:40AM 33.5710 -122.0810 258° West 499 574 32,000  Level FlightAware
07:40AM 33.5550 -122.1730 258° West 499 574 32,000  Level FlightAware
07:41AM 33.5390 -122.2650 258° West 499 574 32,000  Level FlightAware
07:42AM 33.5220 -122.3570 258° West 499 574 32,000  Level FlightAware
07:43AM 33.5020 -122.4730 258° West 499 574 32,000 660 Level FlightAware
07:45AM 33.3930 -123.0190 257° West 491 565 34,000 720 Climbing FlightAware
07:45AM 33.3740 -123.1060 255° West 491 565 34,000  Level FlightAware
07:46AM 33.3490 -123.2180 255° West 491 565 34,000  Level FlightAware
07:47AM 33.3290 -123.3070 255° West 491 565 34,000  Level FlightAware
07:47AM 33.3090 -123.3960 255° West 491 565 34,000  Level FlightAware
07:48AM 33.2890 -123.4860 255° West 491 565 34,000  Level FlightAware
07:49AM 33.2690 -123.5750 255° West 491 565 34,000  Level FlightAware
07:50AM 33.2440 -123.6860 255° West 491 565 34,000  Level FlightAware
07:50AM 33.2240 -123.7760 255° West 491 565 34,000  Level FlightAware
07:51AM 33.2040 -123.8650 255° West 491 565 34,000  Level FlightAware
07:52AM 33.1840 -123.9540 255° West 491 565 34,000  Level FlightAware
07:52AM 33.1640 -124.0430 255° West 491 565 34,000  Level FlightAware
07:53AM 33.1390 -124.1540 255° West 491 565 34,000  Level FlightAware
07:54AM 33.1190 -124.2440 255° West 491 565 34,000  Level FlightAware
07:54AM 33.0990 -124.3330 255° West 491 565 34,000  Level FlightAware
07:54AM 33.0667 -124.5167 255° West 472 543 34,000  Level Oakland Oceanic (ODAPS)
07:57AM 33.0387 -124.6415 255° West  Level FlightAware Approximate
07:58AM 33.0048 -124.7923 255° West  Level FlightAware Approximate
07:59AM 32.9707 -124.9429 255° West  Level FlightAware Approximate
08:00AM 32.9364 -125.0935 255° West  Level FlightAware Approximate
08:01AM 32.8593 -125.4295 255° West 472 543 34,000  Level FlightAware Transoceanic
08:02AM 32.8241 -125.5812 255° West 472 543 34,000  Level FlightAware Transoceanic
08:03AM 32.7887 -125.7328 254° West 472 543 34,000  Level FlightAware Transoceanic
08:04AM 32.7532 -125.8843 254° West 472 543 34,000  Level FlightAware Transoceanic
08:05AM 32.7174 -126.0357 254° West 472 543 34,000  Level FlightAware Transoceanic
08:05AM 32.6833 -126.2167 254° West 475 547 34,000  Level Oakland Oceanic (ODAPS)
08:06AM 32.6815 -126.1869 254° West 472 543 34,000  Level FlightAware Transoceanic
08:07AM 32.6454 -126.3381 254° West 472 543 34,000  Level FlightAware Transoceanic
08:08AM 32.6091 -126.4891 254° West 472 543 34,000  Level FlightAware Transoceanic
08:09AM 32.5726 -126.6399 254° West 472 543 34,000  Level FlightAware Transoceanic
08:10AM 32.5360 -126.7907 254° West 472 543 34,000  Level FlightAware Transoceanic
08:11AM 32.4635 -127.1170 254° West 475 547 34,000  Level FlightAware Transoceanic
08:12AM 32.4263 -127.2667 254° West 475 547 34,000  Level FlightAware Transoceanic
08:13AM 32.3888 -127.4162 253° West 475 547 34,000  Level FlightAware Transoceanic
08:14AM 32.3512 -127.5655 253° West 475 547 34,000  Level FlightAware Transoceanic
08:15AM 32.3134 -127.7148 253° West 475 547 34,000  Level FlightAware Transoceanic
08:16AM 32.2755 -127.8639 253° West 475 547 34,000  Level FlightAware Transoceanic
08:17AM 32.2373 -128.0129 253° West 475 547 34,000  Level FlightAware Transoceanic
08:18AM 32.1990 -128.1618 253° West 475 547 34,000  Level FlightAware Transoceanic
08:19AM 32.1605 -128.3106 253° West 475 547 34,000  Level FlightAware Transoceanic
08:19AM 32.1167 -128.4833 253° West 484 557 34,000  Level Oakland Oceanic (ODAPS)
08:20AM 32.1218 -128.4592 253° West 475 547 34,000  Level FlightAware Transoceanic
08:21AM 32.0830 -128.6077 253° West 475 547 34,000  Level FlightAware Transoceanic
08:22AM 32.0440 -128.7561 253° West 475 547 34,000  Level FlightAware Transoceanic
08:23AM 32.0048 -128.9043 253° West 475 547 34,000  Level FlightAware Transoceanic
08:24AM 31.9655 -129.0525 253° West 475 547 34,000  Level FlightAware Transoceanic
08:25AM 31.8723 -129.4033 252° West 484 557 34,000  Level FlightAware Transoceanic
08:26AM 31.8309 -129.5561 252° West 484 557 34,000  Level FlightAware Transoceanic
08:27AM 31.7894 -129.7088 252° West 484 557 34,000  Level FlightAware Transoceanic
08:28AM 31.7476 -129.8614 252° West 484 557 34,000  Level FlightAware Transoceanic
08:29AM 31.7057 -130.0139 252° West 484 557 34,000  Level FlightAware Transoceanic
08:30AM 31.6636 -130.1661 252° West 484 557 34,000  Level FlightAware Transoceanic
08:31AM 31.6213 -130.3183 252° West 484 557 34,000  Level FlightAware Transoceanic
08:32AM 31.5788 -130.4703 252° West 484 557 34,000  Level FlightAware Transoceanic
08:33AM 31.5362 -130.6222 252° West 484 557 34,000  Level FlightAware Transoceanic
08:33AM 31.5167 -130.7167 251° West 501 577 34,000  Level Oakland Oceanic (ODAPS)
08:34AM 31.4934 -130.7739 252° West 484 557 34,000  Level FlightAware Transoceanic
08:35AM 31.4504 -130.9256 252° West 484 557 34,000  Level FlightAware Transoceanic
08:36AM 31.4072 -131.0770 251° West 484 557 34,000  Level FlightAware Transoceanic
08:37AM 31.3638 -131.2283 251° West 484 557 34,000  Level FlightAware Transoceanic
08:38AM 31.3203 -131.3795 251° West 484 557 34,000  Level FlightAware Transoceanic
08:39AM 31.2406 -131.6625 251° West 501 577 34,000  Level FlightAware Transoceanic
08:40AM 31.1939 -131.8196 251° West 501 577 34,000  Level FlightAware Transoceanic
08:41AM 31.1471 -131.9765 251° West 501 577 34,000  Level FlightAware Transoceanic
08:41AM 31.1000 -132.1333 251° West 470 541 34,000  Level Oakland Oceanic (ODAPS)
08:42AM 31.1000 -132.1333 251° West 501 577 34,000  Level FlightAware Transoceanic
08:43AM 31.0542 -132.2890 251° West 501 577 34,000  Level FlightAware Transoceanic
08:44AM 31.0082 -132.4445 251° West 501 577 34,000  Level FlightAware Transoceanic
08:45AM 30.9620 -132.5999 251° West 501 577 34,000  Level FlightAware Transoceanic
08:46AM 30.9157 -132.7551 251° West 501 577 34,000  Level FlightAware Transoceanic
08:46AM 30.8833 -132.9000 251° West 472 543 34,000  Level Oakland Oceanic (ODAPS)
08:47AM 30.8691 -132.9101 251° West 501 577 34,000  Level FlightAware Transoceanic
08:48AM 30.8389 -133.0104 251° West 470 541 34,000  Level FlightAware Transoceanic
08:49AM 30.7948 -133.1561 251° West 470 541 34,000  Level FlightAware Transoceanic
08:50AM 30.7506 -133.3016 250° West 470 541 34,000  Level FlightAware Transoceanic
08:51AM 30.7062 -133.4471 250° West 470 541 34,000  Level FlightAware Transoceanic
08:52AM 30.6616 -133.5924 250° West 470 541 34,000  Level FlightAware Transoceanic
08:53AM 30.6171 -133.7683 250° West 472 543 34,000  Level FlightAware Transoceanic
08:54AM 30.5721 -133.9126 250° West 472 543 34,000  Level FlightAware Transoceanic
08:55AM 30.5271 -134.0567 250° West 472 543 34,000  Level FlightAware Transoceanic
08:56AM 30.4818 -134.2007 250° West 472 543 34,000  Level FlightAware Transoceanic
08:57AM 30.4364 -134.3445 250° West 472 543 34,000  Level FlightAware Transoceanic
08:58AM 30.3908 -134.4882 250° West 472 543 34,000  Level FlightAware Transoceanic
08:59AM 30.3451 -134.6318 250° West 472 543 34,000  Level FlightAware Transoceanic
09:00AM 30.2992 -134.7753 250° West 472 543 34,000  Level FlightAware Transoceanic
09:00AM 30.2000 -135.0500 250° West 476 548 34,000  Level Oakland Oceanic (ODAPS)
09:01AM 30.2532 -134.9186 250° West 472 543 34,000  Level FlightAware Transoceanic
09:02AM 30.2070 -135.0618 249° West 472 543 34,000  Level FlightAware Transoceanic
09:03AM 30.1606 -135.2048 249° West 472 543 34,000  Level FlightAware Transoceanic
09:04AM 30.1141 -135.3477 249° West 472 543 34,000  Level FlightAware Transoceanic
09:05AM 30.0675 -135.4905 249° West 472 543 34,000  Level FlightAware Transoceanic
09:06AM 30.0206 -135.6331 249° West 472 543 34,000  Level FlightAware Transoceanic
09:07AM 29.8739 -136.0511 249° West 476 548 34,000  Level FlightAware Transoceanic
09:08AM 29.8267 -136.1936 249° West 476 548 34,000  Level FlightAware Transoceanic
09:09AM 29.7794 -136.3359 249° West 476 548 34,000  Level FlightAware Transoceanic
09:10AM 29.7319 -136.4781 249° West 476 548 34,000  Level FlightAware Transoceanic
09:11AM 29.6842 -136.6202 249° West 476 548 34,000  Level FlightAware Transoceanic
09:12AM 29.6364 -136.7621 249° West 476 548 34,000  Level FlightAware Transoceanic
09:13AM 29.5885 -136.9040 249° West 476 548 34,000  Level FlightAware Transoceanic
09:14AM 29.5404 -137.0456 249° West 476 548 34,000  Level FlightAware Transoceanic
09:14AM 29.5167 -137.1333 248° West 485 558 34,000  Level Oakland Oceanic (ODAPS)
09:15AM 29.4921 -137.1872 249° West 476 548 34,000  Level FlightAware Transoceanic
09:16AM 29.4437 -137.3286 249° West 476 548 34,000  Level FlightAware Transoceanic
09:17AM 29.3952 -137.4698 248° West 476 548 34,000  Level FlightAware Transoceanic
09:18AM 29.3465 -137.6109 248° West 476 548 34,000  Level FlightAware Transoceanic
09:19AM 29.2976 -137.7519 248° West 476 548 34,000  Level FlightAware Transoceanic
09:20AM 29.2150 -138.0001 248° West 485 558 34,000  Level FlightAware Transoceanic
09:21AM 29.1642 -138.1441 248° West 485 558 34,000  Level FlightAware Transoceanic
09:22AM 29.1132 -138.2879 248° West 485 558 34,000  Level FlightAware Transoceanic
09:23AM 29.0621 -138.4316 248° West 485 558 34,000  Level FlightAware Transoceanic
09:24AM 29.0108 -138.5751 248° West 485 558 34,000  Level FlightAware Transoceanic
09:25AM 28.9594 -138.7185 248° West 485 558 34,000  Level FlightAware Transoceanic
09:26AM 28.9078 -138.8618 248° West 485 558 34,000  Level FlightAware Transoceanic
09:27AM 28.8561 -139.0049 248° West 485 558 34,000  Level FlightAware Transoceanic
09:28AM 28.8042 -139.1478 247° West 485 558 34,000  Level FlightAware Transoceanic
09:28AM 28.8167 -139.1333 246° West 482 555 34,000  Level Oakland Oceanic (ODAPS)
09:29AM 28.7522 -139.2906 247° West 485 558 34,000  Level FlightAware Transoceanic
09:30AM 28.7000 -139.4333 247° West 485 558 34,000  Level FlightAware Transoceanic
09:30AM 28.7000 -139.4333 247° West 460 529 34,000  Level Oakland Oceanic (ODAPS)
09:31AM 28.6482 -139.5741 247° West 485 558 34,000  Level FlightAware Transoceanic
09:32AM 28.5963 -139.7146 247° West 485 558 34,000  Level FlightAware Transoceanic
09:33AM 28.5442 -139.8551 247° West 485 558 34,000  Level FlightAware Transoceanic
09:34AM 28.4920 -139.9954 247° West 482 555 34,000  Level FlightAware Transoceanic
09:35AM 28.4396 -140.1355 247° West 482 555 34,000  Level FlightAware Transoceanic
09:36AM 28.4053 -140.2271 247° West 460 529 34,000  Level FlightAware Transoceanic
09:37AM 28.3557 -140.3590 247° West 460 529 34,000  Level FlightAware Transoceanic
09:38AM 28.3060 -140.4907 247° West 460 529 34,000  Level FlightAware Transoceanic
09:39AM 28.2562 -140.6223 247° West 460 529 34,000  Level FlightAware Transoceanic
09:40AM 28.2063 -140.7538 247° West 460 529 34,000  Level FlightAware Transoceanic
09:41AM 28.1562 -140.8852 247° West 460 529 34,000  Level FlightAware Transoceanic
09:42AM 28.1060 -141.0165 247° West 460 529 34,000  Level FlightAware Transoceanic
09:42AM 28.0833 -141.0667 247° West 458 527 34,000  Level Oakland Oceanic (ODAPS)
09:43AM 28.0557 -141.1476 246° West 460 529 34,000  Level FlightAware Transoceanic
09:44AM 28.0053 -141.2786 246° West 460 529 34,000  Level FlightAware Transoceanic
09:45AM 27.9547 -141.4095 246° West 460 529 34,000  Level FlightAware Transoceanic
09:46AM 27.9040 -141.5402 246° West 460 529 34,000  Level FlightAware Transoceanic
09:47AM 27.8532 -141.6709 246° West 460 529 34,000  Level FlightAware Transoceanic
09:48AM 27.7750 -141.8637 246° West 458 527 34,000  Level FlightAware Transoceanic
09:49AM 27.7231 -141.9961 246° West 458 527 34,000  Level FlightAware Transoceanic
09:50AM 27.6712 -142.1283 246° West 458 527 34,000  Level FlightAware Transoceanic
09:51AM 27.6191 -142.2605 246° West 458 527 34,000  Level FlightAware Transoceanic
09:52AM 27.5669 -142.3925 246° West 458 527 34,000  Level FlightAware Transoceanic
09:53AM 27.5145 -142.5244 246° West 458 527 34,000  Level FlightAware Transoceanic
09:54AM 27.4621 -142.6561 246° West 458 527 34,000  Level FlightAware Transoceanic
09:55AM 27.4095 -142.7878 246° West 458 527 34,000  Level FlightAware Transoceanic
09:56AM 27.3568 -142.9193 246° West 458 527 34,000  Level FlightAware Transoceanic
09:56AM 27.3500 -142.9500 246° West 456 525 34,000  Level Oakland Oceanic (ODAPS)
09:57AM 27.3039 -143.0507 246° West 458 527 34,000  Level FlightAware Transoceanic
09:58AM 27.2510 -143.1819 246° West 458 527 34,000  Level FlightAware Transoceanic
09:59AM 27.1979 -143.3131 245° Southwest 458 527 34,000  Level FlightAware Transoceanic
10:00AM 27.1447 -143.4441 245° Southwest 458 527 34,000  Level FlightAware Transoceanic
10:01AM 27.0914 -143.5750 245° Southwest 458 527 34,000  Level FlightAware Transoceanic
10:02AM 27.0327 -143.7290 245° Southwest 456 525 34,000  Level FlightAware Transoceanic
10:03AM 26.9793 -143.8584 245° Southwest 456 525 34,000  Level FlightAware Transoceanic
10:04AM 26.9259 -143.9876 245° Southwest 456 525 34,000  Level FlightAware Transoceanic
10:05AM 26.8724 -144.1168 245° Southwest 456 525 34,000  Level FlightAware Transoceanic
10:06AM 26.8187 -144.2458 245° Southwest 456 525 34,000  Level FlightAware Transoceanic
10:07AM 26.7649 -144.3747 245° Southwest 456 525 34,000  Level FlightAware Transoceanic
10:08AM 26.7111 -144.5035 245° Southwest 456 525 34,000  Level FlightAware Transoceanic
10:09AM 26.6570 -144.6322 245° Southwest 456 525 34,000  Level FlightAware Transoceanic
10:10AM 26.6029 -144.7607 245° Southwest 456 525 34,000  Level FlightAware Transoceanic
10:10AM 26.5833 -144.8167 245° Southwest 452 520 34,000  Level Oakland Oceanic (ODAPS)
10:11AM 26.5487 -144.8891 245° Southwest 456 525 34,000  Level FlightAware Transoceanic
10:12AM 26.4943 -145.0174 245° Southwest 456 525 34,000  Level FlightAware Transoceanic
10:13AM 26.4398 -145.1456 245° Southwest 456 525 34,000  Level FlightAware Transoceanic
10:14AM 26.3853 -145.2737 245° Southwest 456 525 34,000  Level FlightAware Transoceanic
10:15AM 26.3306 -145.4016 244° Southwest 456 525 34,000  Level FlightAware Transoceanic
10:16AM 26.2667 -145.5547 244° Southwest 452 520 34,000  Level FlightAware Transoceanic
10:17AM 26.2136 -145.6773 244° Southwest 452 520 34,000  Level FlightAware Transoceanic
10:18AM 26.1603 -145.7998 244° Southwest 452 520 34,000  Level FlightAware Transoceanic
10:19AM 26.1070 -145.9222 244° Southwest 452 520 34,000  Level FlightAware Transoceanic
10:20AM 26.0536 -146.0445 244° Southwest 452 520 34,000  Level FlightAware Transoceanic
10:20AM 26.0000 -146.1667 244° Southwest 456 525 34,000  Level Oakland Oceanic (ODAPS)
10:21AM 26.0000 -146.1667 244° Southwest 452 520 34,000  Level FlightAware Transoceanic
10:22AM 25.9419 -146.3007 244° Southwest 452 520 34,000  Level FlightAware Transoceanic
10:23AM 25.8837 -146.4346 244° Southwest 452 520 34,000  Level FlightAware Transoceanic
10:23AM 25.7833 -146.6833 244° Southwest 456 525 34,000  Level Oakland Oceanic (ODAPS)
10:24AM 25.8254 -146.5684 244° Southwest 452 520 34,000  Level FlightAware Transoceanic
10:25AM 25.7669 -146.7021 244° Southwest 452 520 34,000  Level FlightAware Transoceanic
10:26AM 25.7083 -146.8356 244° Southwest 452 520 34,000  Level FlightAware Transoceanic
10:27AM 25.6146 -147.0484 244° Southwest 456 525 34,000  Level FlightAware Transoceanic
10:28AM 25.5591 -147.1739 244° Southwest 456 525 34,000  Level FlightAware Transoceanic
10:29AM 25.5035 -147.2993 244° Southwest 456 525 34,000  Level FlightAware Transoceanic
10:30AM 25.4431 -147.4511 244° Southwest 456 525 34,000  Level FlightAware Transoceanic
10:31AM 25.3861 -147.5786 244° Southwest 456 525 34,000  Level FlightAware Transoceanic
10:32AM 25.3289 -147.7060 244° Southwest 456 525 34,000  Level FlightAware Transoceanic
10:33AM 25.2716 -147.8333 244° Southwest 456 525 34,000  Level FlightAware Transoceanic
10:34AM 25.2141 -147.9605 243° Southwest 456 525 34,000  Level FlightAware Transoceanic
10:35AM 25.1566 -148.0876 243° Southwest 456 525 34,000  Level FlightAware Transoceanic
10:36AM 25.0990 -148.2145 243° Southwest 456 525 34,000  Level FlightAware Transoceanic
10:37AM 25.0413 -148.3413 243° Southwest 456 525 34,000  Level FlightAware Transoceanic
10:37AM 24.9667 -148.5167 243° Southwest 452 520 34,000  Level Oakland Oceanic (ODAPS)
10:38AM 24.9834 -148.4680 243° Southwest 456 525 34,000  Level FlightAware Transoceanic
10:39AM 24.9255 -148.5946 243° Southwest 456 525 34,000  Level FlightAware Transoceanic
10:40AM 24.8674 -148.7210 243° Southwest 456 525 34,000  Level FlightAware Transoceanic
10:41AM 24.8092 -148.8474 243° Southwest 456 525 34,000  Level FlightAware Transoceanic
10:42AM 24.7510 -148.9736 243° Southwest 456 525 34,000  Level FlightAware Transoceanic
10:43AM 24.6926 -149.0997 243° Southwest 456 525 34,000  Level FlightAware Transoceanic
10:44AM 24.6202 -149.2653 243° Southwest 452 520 34,000  Level FlightAware Transoceanic
10:45AM 24.5621 -149.3897 243° Southwest 452 520 34,000  Level FlightAware Transoceanic
10:46AM 24.5039 -149.5139 243° Southwest 452 520 34,000  Level FlightAware Transoceanic
10:47AM 24.4456 -149.6380 243° Southwest 452 520 34,000  Level FlightAware Transoceanic
10:48AM 24.3872 -149.7621 243° Southwest 452 520 34,000  Level FlightAware Transoceanic
10:49AM 24.3287 -149.8860 243° Southwest 452 520 34,000  Level FlightAware Transoceanic
10:50AM 24.2701 -150.0098 243° Southwest 452 520 34,000  Level FlightAware Transoceanic
10:51AM 24.2113 -150.1334 242° Southwest 452 520 34,000  Level FlightAware Transoceanic
10:51AM 24.1500 -150.2667 242° Southwest 447 514 34,000  Level Oakland Oceanic (ODAPS)
10:52AM 24.1525 -150.2570 242° Southwest 452 520 34,000  Level FlightAware Transoceanic
10:53AM 24.0936 -150.3804 242° Southwest 452 520 34,000  Level FlightAware Transoceanic
10:54AM 24.0346 -150.5038 242° Southwest 452 520 34,000  Level FlightAware Transoceanic
10:55AM 23.9755 -150.6270 242° Southwest 452 520 34,000  Level FlightAware Transoceanic
10:56AM 23.9163 -150.7501 242° Southwest 452 520 34,000  Level FlightAware Transoceanic
10:57AM 23.8570 -150.8731 242° Southwest 452 520 34,000  Level FlightAware Transoceanic
10:58AM 23.7572 -151.0821 242° Southwest 447 514 34,000  Level FlightAware Transoceanic
10:59AM 23.7008 -151.1981 242° Southwest 447 514 34,000  Level FlightAware Transoceanic
11:00AM 23.6443 -151.3141 242° Southwest 447 514 34,000  Level FlightAware Transoceanic
11:01AM 23.5876 -151.4300 242° Southwest 447 514 34,000  Level FlightAware Transoceanic
11:02AM 23.5309 -151.5458 242° Southwest 447 514 34,000  Level FlightAware Transoceanic
11:03AM 23.4741 -151.6615 242° Southwest 447 514 34,000  Level FlightAware Transoceanic
11:04AM 23.4172 -151.7770 242° Southwest 447 514 34,000  Level FlightAware Transoceanic
11:05AM 23.3603 -151.8925 242° Southwest 447 514 34,000  Level FlightAware Transoceanic
11:05AM 23.3167 -151.9667 242° Southwest 453 521 34,000  Level Oakland Oceanic (ODAPS)
11:06AM 23.3032 -152.0079 242° Southwest 447 514 34,000  Level FlightAware Transoceanic
11:07AM 23.2461 -152.1232 242° Southwest 447 514 34,000  Level FlightAware Transoceanic
11:08AM 23.1888 -152.2384 242° Southwest 447 514 34,000  Level FlightAware Transoceanic
11:09AM 23.1315 -152.3535 242° Southwest 447 514 34,000  Level FlightAware Transoceanic
11:10AM 23.0741 -152.4684 241° Southwest 447 514 34,000  Level FlightAware Transoceanic
11:11AM 23.0167 -152.5833 242° Southwest 447 514 34,000  Level FlightAware Transoceanic
11:11AM 22.9833 -152.6667 242° Southwest 420 483 34,000  Level Honolulu Center
11:12AM 22.8993 -152.8206 242° Southwest 453 521 34,000  Level FlightAware Transoceanic
11:12AM 22.9167 -152.7833 238° Southwest 440 506 34,000  Level Honolulu Center
11:13AM 22.8404 -152.9391 242° Southwest 453 521 34,000  Level FlightAware Transoceanic
11:13AM 22.8833 -152.9167 255° West 440 506 34,000  Level Honolulu Center
11:14AM 22.7815 -153.0575 242° Southwest 453 521 34,000  Level FlightAware Transoceanic
11:14AM 22.8333 -153.0333 245° Southwest 440 506 34,000  Level Honolulu Center
11:15AM 22.7225 -153.1758 242° Southwest 453 521 34,000  Level FlightAware Transoceanic
11:15AM 22.8000 -153.1667 255° West 450 518 34,000  Level Honolulu Center
11:16AM 22.6634 -153.2939 242° Southwest 453 521 34,000  Level FlightAware Transoceanic
11:16AM 22.7667 -153.2667 250° West 440 506 34,000  Level Honolulu Center
11:17AM 22.7167 -153.4333 252° West 450 518 34,000  Level Honolulu Center
11:18AM 22.6833 -153.5500 253° West 450 518 34,000  Level Honolulu Center
11:19AM 22.6333 -153.6833 248° West 450 518 34,000  Level Honolulu Center
11:20AM 22.6000 -153.8167 255° West 450 518 34,000  Level Honolulu Center
11:21AM 22.5667 -153.9333 253° West 450 518 34,000  Level Honolulu Center
11:22AM 22.5167 -154.0667 248° West 440 506 34,000  Level Honolulu Center
11:23AM 22.4833 -154.2000 255° West 450 518 34,000  Level Honolulu Center
11:24AM 22.4333 -154.3333 248° West 460 529 34,000  Level Honolulu Center
11:25AM 22.4000 -154.4500 253° West 450 518 34,000  Level Honolulu Center
11:26AM 22.3667 -154.5833 255° West 450 518 34,000  Level Honolulu Center
11:27AM 22.3167 -154.7167 248° West 450 518 34,000  Level Honolulu Center
11:28AM 22.2833 -154.8333 253° West 450 518 34,000  Level Honolulu Center
11:29AM 22.2333 -154.9667 248° West 450 518 34,000  Level Honolulu Center
11:30AM 22.2000 -155.1000 255° West 450 518 34,000  Level Honolulu Center
11:31AM 22.1667 -155.2167 253° West 450 518 34,000  Level Honolulu Center
11:32AM 22.1167 -155.3500 248° West 450 518 34,000  Level Honolulu Center
11:33AM 22.0833 -155.4833 255° West 450 518 34,000  Level Honolulu Center
11:34AM 22.0333 -155.6000 245° Southwest 450 518 34,000  Level Honolulu Center
11:35AM 22.0000 -155.7333 255° West 450 518 34,000  Level Honolulu Center
11:36AM 21.9500 -155.8500 245° Southwest 450 518 34,000  Level Honolulu Center
11:37AM 21.9167 -155.9833 255° West 440 506 34,000  Level Honolulu Center
11:38AM 21.8667 -156.1167 248° West 440 506 34,000  Level Honolulu Center
11:39AM 21.8333 -156.2333 253° West 440 506 34,000  Level Honolulu Center
11:40AM 21.7833 -156.3667 248° West 450 518 34,000  Level Honolulu Center
11:41AM 21.7500 -156.4833 253° West 450 518 34,000  Level Honolulu Center
11:42AM 21.7000 -156.6167 248° West 450 518 34,000 -900 Level Honolulu Center
11:43AM 21.6667 -156.7500 255° West 450 518 32,300 -2,880 Descending Honolulu Center
11:48AM 21.4220 -157.4900 255° West 427 491 14,900 -2,820 Descending FlightAware
11:49AM 21.3640 -157.5800 235° Southwest 424 488 13,600 -1,980 Descending FlightAware
11:50AM 21.3020 -157.6560 229° Southwest 386 444 11,500 -1,920 Descending FlightAware
11:51AM 21.2590 -157.7090 229° Southwest 363 418 10,800 -780 Descending FlightAware
11:51AM 21.2280 -157.7680 241° Southwest 324 373 10,500 -660 Descending FlightAware
11:52AM 21.1950 -157.8310 241° Southwest 299 344 9,900 -1,080 Descending FlightAware
11:53AM 21.1790 -157.8650 243° Southwest 286 329 9,200 -1,800 Descending FlightAware
11:53AM 21.1660 -157.9120 253° West 272 313 8,100 -1,440 Descending FlightAware
11:54AM 21.1660 -157.9600 270° West 230 265 7,400 -1,380 Descending FlightAware
11:55AM 21.1660 -157.9990 270° West 225 259 6,300 -1,140 Descending FlightAware
11:55AM 21.1660 -158.0270 270° West 225 259 6,300  Level FlightAware